Pagrindinis puslapis
METAR-TAF:

METAR-TAF

Oro uostai :

Fodža, Italija

platuma: 41-25-58N, ilguma: 015-32-06E, Aukštis: 81 m

Dabartinis oras

Ataskaita buvo paskelbta 3 valandos ir 17 minutes, ne 15:50 UTC
Vėjas 9 kt iš Šiaurės/Šiaurės Vakarų
Temperatūra 23°C
Drėgmė 73%
Slėgis 1015 hPa
Matomumas 10 km arba daugiau
Išsisklaidę debesys ne aukštis 3000 ft

METAR: LIBF 191550Z 34009KT 9999 SCT030 23/18 Q1015

Laikas: 21:07 (19:07 UTC)


TAF: trūkstamas

Orai ataskaitas ir orų prognozės (METAR, TAF).

turimą stotys yra geltonos ir raudonos taškus žemėlapyje.

Perkelti pele per norėdami pamatyti stoties vardą.

Tada spustelėkite, norėdami matyti oro stebėjimo ir prognozės.

Norėdami pakeisti žemėlapį: spustelėkite ant žalios mygtukų su juodo kryžiaus žemyn,; žalią mygtuką su brūkšneliu, jei norite nutolinti; arba žalių rodyklių gretimoms žemėlapius.


METAR-TAF: